Time;durP1;ratioP1;P1;durP2;ratioP2;P2;SDS_P1;SDS_P2;PMS_P1;PMS_P2;Temp;Humidity;BMP_temperature;BMP_pressure;BME280_temperature;BME280_humidity;BME280_pressure;Samples;Min_cycle;Max_cycle;Signal;HPM_P1;HPM_P2
2021/05/14 00:00:46;;;;;;;9.69;6.70;;;;;;;14.72;66.71;98574.98;397336;101;2071907;-70
2021/05/14 00:01:54;;;;;;;9.97;6.16;;;;;;;14.60;66.41;98571.61;376670;105;1961927;-70
2021/05/14 00:03:06;;;;;;;9.08;6.06;;;;;;;14.66;66.62;98570.59;394904;104;1987013;-75
2021/05/14 00:04:11;;;;;;;10.32;6.70;;;;;;;14.51;66.62;98571.24;375345;107;1962000;-74
2021/05/14 00:05:18;;;;;;;9.00;6.51;;;;;;;14.49;66.94;98569.86;371832;107;1961947;-73
2021/05/14 00:06:30;;;;;;;9.62;5.88;;;;;;;14.58;66.95;98576.52;399365;104;1970959;-74
2021/05/14 00:07:35;;;;;;;10.46;6.43;;;;;;;14.44;67.02;98572.53;379374;105;1961987;-75
2021/05/14 00:08:47;;;;;;;10.22;6.41;;;;;;;14.53;67.20;98571.03;403201;101;1986949;-74
2021/05/14 00:09:54;;;;;;;12.67;6.41;;;;;;;14.40;67.29;98568.70;329971;107;2561983;-73
2021/05/14 00:11:06;;;;;;;11.53;6.55;;;;;;;14.49;67.39;98575.30;401262;101;2071916;-74
2021/05/14 00:12:11;;;;;;;9.67;5.98;;;;;;;14.37;67.27;98578.19;382058;103;1962021;-74
2021/05/14 00:13:24;;;;;;;10.20;6.98;;;;;;;14.45;67.67;98574.19;365134;104;2390070;-71
2021/05/14 00:14:29;;;;;;;11.87;6.41;;;;;;;14.33;67.59;98577.05;357681;104;1963021;-70
2021/05/14 00:15:35;;;;;;;11.16;6.25;;;;;;;14.32;67.89;98578.14;375484;105;1961953;-72
2021/05/14 00:16:47;;;;;;;11.95;6.54;;;;;;;14.43;67.73;98570.91;382032;106;2072953;-71
2021/05/14 00:17:54;;;;;;;9.82;6.82;;;;;;;14.36;67.66;98573.00;321554;107;2020329;-70
2021/05/14 00:19:06;;;;;;;8.77;6.22;;;;;;;14.47;67.68;98575.57;394904;103;1986923;-71
2021/05/14 00:20:13;;;;;;;10.43;6.26;;;;;;;14.36;67.51;98573.81;369558;107;1965013;-73
2021/05/14 00:21:27;;;;;;;11.85;6.68;;;;;;;14.47;67.60;98572.02;391765;104;1974001;-73
2021/05/14 00:22:34;;;;;;;9.52;5.56;;;;;;;14.38;67.42;98568.14;367269;107;2894009;-73
2021/05/14 00:23:39;;;;;;;10.61;6.29;;;;;;;14.41;67.29;98570.33;358055;107;1964019;-75
2021/05/14 00:24:44;;;;;;;8.98;6.10;;;;;;;14.43;67.23;98565.47;366257;107;1962020;-75
2021/05/14 00:25:50;;;;;;;13.18;6.66;;;;;;;14.43;67.25;98566.28;372120;108;1965068;-72
2021/05/14 00:27:03;;;;;;;11.04;6.53;;;;;;;14.53;67.26;98565.59;393714;104;1986046;-74
2021/05/14 00:28:09;;;;;;;10.64;5.76;;;;;;;14.42;67.29;98561.94;347893;106;2370913;-73
2021/05/14 00:29:14;;;;;;;11.79;5.35;;;;;;;14.45;67.19;98566.03;373330;106;1961920;-74
2021/05/14 00:30:26;;;;;;;11.20;6.84;;;;;;;14.56;67.11;98565.08;405511;101;1985923;-75
2021/05/14 00:31:32;;;;;;;11.12;6.11;;;;;;;14.44;67.23;98554.33;387718;103;1962061;-73
2021/05/14 00:32:39;;;;;;;9.21;6.09;;;;;;;14.43;67.20;98555.41;336997;103;2793940;-73
2021/05/14 00:33:51;;;;;;;9.57;5.98;;;;;;;14.55;67.39;98559.88;397480;104;1964939;-72
2021/05/14 00:34:56;;;;;;;11.78;6.86;;;;;;;14.47;67.15;98555.70;378171;105;1962049;-73
2021/05/14 00:36:09;;;;;;;10.06;6.26;;;;;;;14.64;67.18;98563.78;375742;101;2413970;-73
2021/05/14 00:37:14;;;;;;;9.05;6.46;;;;;;;14.53;67.10;98557.44;365184;104;1961933;-73
2021/05/14 00:38:38;;;;;;;11.91;6.28;;;;;;;14.54;67.06;98561.78;385877;104;1961942;-73
2021/05/14 00:39:44;;;;;;;11.96;6.29;;;;;;;14.55;66.95;98555.26;325095;105;2115033;-73
2021/05/14 00:40:50;;;;;;;9.12;5.71;;;;;;;14.56;66.89;98556.11;376626;105;1961972;-73
2021/05/14 00:41:55;;;;;;;10.78;6.66;;;;;;;14.58;66.77;98546.62;377239;107;1961876;-73
2021/05/14 00:43:02;;;;;;;10.12;6.67;;;;;;;14.60;66.81;98555.30;373279;107;1961901;-73
2021/05/14 00:44:26;;;;;;;9.24;5.66;;;;;;;14.73;66.93;98545.90;382417;108;1961945;-74
2021/05/14 00:45:38;;;;;;;9.28;5.88;;;;;;;14.80;66.56;98545.69;348824;104;2053912;-74
2021/05/14 00:47:08;;;;;;;10.63;6.31;;;;;;;14.67;66.46;98552.39;375439;107;1961984;-72
2021/05/14 00:48:20;;;;;;;10.64;6.17;;;;;;;14.78;66.50;98553.28;395869;104;1987006;-71
2021/05/14 00:49:26;;;;;;;10.36;6.39;;;;;;;14.68;66.25;98551.30;375248;107;1961050;-73
2021/05/14 00:50:50;;;;;;;10.12;6.59;;;;;;;14.69;66.17;98550.23;368565;107;1961917;-73
2021/05/14 00:51:57;;;;;;;11.09;6.19;;;;;;;14.72;66.04;98555.95;370824;107;1962023;-73
2021/05/14 00:53:04;;;;;;;10.52;6.92;;;;;;;14.69;66.08;98550.23;339821;109;1961951;-71
2021/05/14 00:54:16;;;;;;;11.28;7.29;;;;;;;14.81;66.10;98541.88;381527;106;2076670;-72
2021/05/14 00:55:22;;;;;;;9.69;6.60;;;;;;;14.69;66.10;98551.05;362972;110;1969075;-74
2021/05/14 00:56:28;;;;;;;9.28;6.41;;;;;;;14.69;66.23;98544.80;332859;110;1961959;-72
2021/05/14 00:57:40;;;;;;;9.66;6.26;;;;;;;14.79;66.16;98538.59;391481;106;1985926;-72
2021/05/14 00:58:47;;;;;;;10.22;6.37;;;;;;;14.66;66.22;98543.41;368595;109;1961996;-72
2021/05/14 01:00:00;;;;;;;8.68;5.84;;;;;;;14.76;66.25;98533.69;391458;104;1973011;-72
2021/05/14 01:01:05;;;;;;;9.41;6.20;;;;;;;14.61;66.30;98548.00;369835;108;1960743;-72
2021/05/14 01:02:29;;;;;;;8.80;5.90;;;;;;;14.59;66.39;98545.52;368395;107;1961697;-73
2021/05/14 01:03:34;;;;;;;10.49;6.28;;;;;;;14.59;66.49;98542.00;371015;107;1961886;-72
2021/05/14 01:04:48;;;;;;;12.62;6.73;;;;;;;14.69;66.53;98536.64;376757;108;1985999;-73
2021/05/14 01:05:53;;;;;;;10.17;6.30;;;;;;;14.56;66.40;98540.61;310114;112;2030836;-73
2021/05/14 01:06:58;;;;;;;10.74;5.97;;;;;;;14.57;66.54;98542.24;344995;112;1962079;-73
2021/05/14 01:08:11;;;;;;;10.26;6.09;;;;;;;14.68;66.40;98535.80;387777;106;1985992;-72
2021/05/14 01:09:20;;;;;;;12.87;6.03;;;;;;;14.57;66.45;98542.24;368442;109;1961947;-72
2021/05/14 01:10:33;;;;;;;9.82;6.46;;;;;;;14.65;66.62;98536.33;366685;104;2401998;-73
2021/05/14 01:11:38;;;;;;;10.69;6.49;;;;;;;14.54;66.56;98539.23;350311;106;1961994;-73
2021/05/14 01:12:47;;;;;;;10.34;6.39;;;;;;;14.55;66.45;98535.42;371037;107;1961983;-73
2021/05/14 01:14:05;;;;;;;10.48;6.08;;;;;;;14.64;66.48;98534.70;385927;106;1988010;-72
2021/05/14 01:15:11;;;;;;;8.29;5.18;;;;;;;14.51;66.57;98535.92;365499;108;1960844;-73
2021/05/14 01:16:18;;;;;;;9.46;5.89;;;;;;;14.53;66.41;98526.70;318827;110;2783746;-72
2021/05/14 01:17:23;;;;;;;10.08;6.19;;;;;;;14.53;66.33;98534.86;335871;110;1960791;-73
2021/05/14 01:18:28;;;;;;;10.56;5.77;;;;;;;14.54;66.20;98540.05;353812;109;1960872;-72
2021/05/14 01:19:40;;;;;;;11.39;6.59;;;;;;;14.66;66.10;98543.41;392493;104;1984909;-72
2021/05/14 01:20:47;;;;;;;9.77;5.85;;;;;;;14.57;65.99;98536.80;368207;108;1960845;-73
2021/05/14 01:22:00;;;;;;;10.02;6.00;;;;;;;14.69;65.91;98526.58;395196;104;1962978;-71
2021/05/14 01:23:05;;;;;;;9.52;5.42;;;;;;;14.60;65.78;98538.19;375818;106;1961985;-73
2021/05/14 01:24:29;;;;;;;11.66;5.94;;;;;;;14.60;65.76;98532.75;378020;107;1963055;-73
2021/05/14 01:25:34;;;;;;;11.52;6.08;;;;;;;14.58;65.91;98538.47;372235;107;1961945;-73
2021/05/14 01:26:40;;;;;;;9.91;5.84;;;;;;;14.59;65.82;98542.00;370362;107;1961934;-72
2021/05/14 01:27:45;;;;;;;10.14;6.11;;;;;;;14.58;65.75;98532.19;371083;107;1961931;-73
2021/05/14 01:28:53;;;;;;;11.03;5.86;;;;;;;14.55;65.58;98533.52;370899;108;1962865;-74
2021/05/14 01:30:06;;;;;;;10.07;5.80;;;;;;;14.60;65.64;98535.47;392222;104;1986983;-72
2021/05/14 01:31:12;;;;;;;12.23;5.19;;;;;;;14.49;65.63;98539.97;367998;108;1961786;-73
2021/05/14 01:32:17;;;;;;;12.73;6.39;;;;;;;14.52;65.58;98536.73;323648;107;2026150;-73
2021/05/14 01:33:30;;;;;;;9.38;5.74;;;;;;;14.63;65.54;98537.66;397243;103;1982876;-70
2021/05/14 01:34:37;;;;;;;9.42;5.63;;;;;;;14.50;65.48;98536.16;379153;105;1961870;-71
2021/05/14 01:35:49;;;;;;;10.39;5.72;;;;;;;14.61;65.41;98534.41;397593;103;1967049;-73
2021/05/14 01:36:54;;;;;;;14.86;6.22;;;;;;;14.52;65.43;98536.73;374392;107;1962028;-73
2021/05/14 01:38:17;;;;;;;10.58;6.42;;;;;;;14.51;65.26;98535.11;352910;107;2280448;-73
2021/05/14 01:39:24;;;;;;;9.80;5.59;;;;;;;14.53;65.38;98534.86;356512;105;1961928;-74
2021/05/14 01:40:36;;;;;;;11.58;5.97;;;;;;;14.47;65.39;98531.25;378133;105;1961937;-74
2021/05/14 01:41:41;;;;;;;10.25;5.61;;;;;;;14.47;65.42;98529.37;378733;105;1961911;-72
2021/05/14 01:42:47;;;;;;;10.34;5.63;;;;;;;14.43;65.58;98538.30;336705;105;2661015;-72
2021/05/14 01:43:53;;;;;;;10.68;5.41;;;;;;;14.53;65.13;98534.86;358403;105;1961876;-72
2021/05/14 01:45:07;;;;;;;11.08;5.87;;;;;;;14.66;65.15;98526.27;389596;106;1986021;-75
2021/05/14 01:46:12;;;;;;;9.53;5.60;;;;;;;14.56;65.00;98531.65;318573;108;2060088;-72
2021/05/14 01:47:26;;;;;;;9.64;5.93;;;;;;;14.66;65.01;98528.98;393581;103;1985951;-73
2021/05/14 01:48:34;;;;;;;10.02;5.45;;;;;;;14.54;65.04;98525.65;338750;107;2553953;-72
2021/05/14 01:49:57;;;;;;;12.52;5.64;;;;;;;14.54;65.07;98536.52;344554;107;2429870;-73
2021/05/14 01:51:17;;;;;;;10.79;5.83;;;;;;;14.53;65.21;98523.98;347284;107;1960875;-73
2021/05/14 01:52:22;;;;;;;9.13;5.16;;;;;;;14.52;65.15;98528.58;348623;108;2258686;-74
2021/05/14 01:53:37;;;;;;;9.43;5.46;;;;;;;14.67;65.13;98527.92;373020;101;2474839;-73
2021/05/14 01:54:43;;;;;;;8.37;5.51;;;;;;;14.55;65.00;98527.27;362689;103;1960767;-74
2021/05/14 01:55:49;;;;;;;10.16;5.88;;;;;;;14.54;65.11;98529.17;373099;106;1960950;-72
2021/05/14 01:56:55;;;;;;;9.19;5.92;;;;;;;14.49;65.18;98523.67;379218;105;1962008;-73
2021/05/14 01:58:00;;;;;;;13.06;5.58;;;;;;;14.48;65.25;98522.04;378810;106;1963049;-73
2021/05/14 01:59:06;;;;;;;11.52;6.36;;;;;;;14.47;65.27;98525.81;377141;105;1962023;-72
2021/05/14 02:00:20;;;;;;;9.84;5.77;;;;;;;14.45;65.38;98520.66;339394;106;2599065;-73
2021/05/14 02:01:26;;;;;;;10.44;6.10;;;;;;;14.44;65.36;98523.63;374963;105;1961938;-73
2021/05/14 02:02:32;;;;;;;9.82;6.47;;;;;;;14.43;65.45;98525.53;348583;106;2478893;-73
2021/05/14 02:03:44;;;;;;;10.26;7.08;;;;;;;14.55;65.54;98524.55;394603;104;2072965;-73
2021/05/14 02:04:50;;;;;;;13.02;7.70;;;;;;;14.43;65.51;98522.00;376096;106;1962015;-71
2021/05/14 02:06:02;;;;;;;12.75;7.61;;;;;;;14.51;65.52;98525.05;372632;104;2270814;-71
2021/05/14 02:07:07;;;;;;;15.17;10.05;;;;;;;14.39;65.55;98523.58;365877;106;1960878;-70
2021/05/14 02:08:19;;;;;;;13.21;8.47;;;;;;;14.53;65.71;98527.55;392792;104;1987003;-73
2021/05/14 02:09:25;;;;;;;14.41;10.66;;;;;;;14.40;65.69;98527.95;375132;107;1962018;-72
2021/05/14 02:10:31;;;;;;;14.44;8.63;;;;;;;14.43;65.69;98524.71;374342;107;1963035;-74
2021/05/14 02:11:43;;;;;;;12.59;9.03;;;;;;;14.54;65.69;98512.06;392792;104;2069760;-71
2021/05/14 02:12:50;;;;;;;12.16;8.48;;;;;;;14.45;65.46;98515.23;378402;106;1967839;-70
2021/05/14 02:13:56;;;;;;;11.89;7.64;;;;;;;14.37;65.85;98518.42;378884;105;1961926;-71
2021/05/14 02:15:03;;;;;;;11.58;7.90;;;;;;;13.99;65.83;98455.06;370435;106;2924891;-71
2021/05/14 02:16:16;;;;;;;10.87;7.16;;;;;;;14.42;65.96;98514.91;391413;104;1989999;-72
2021/05/14 02:17:22;;;;;;;11.79;7.21;;;;;;;14.32;65.86;98514.84;308737;107;2201643;-72
2021/05/14 02:18:27;;;;;;;12.83;7.36;;;;;;;14.36;65.65;98516.77;376178;107;1960939;-74
2021/05/14 02:19:33;;;;;;;10.66;7.67;;;;;;;14.38;65.82;98519.23;374971;107;1963952;-73
2021/05/14 02:20:39;;;;;;;11.67;6.54;;;;;;;14.37;65.54;98517.58;370631;107;1962915;-74
2021/05/14 02:21:46;;;;;;;12.81;7.34;;;;;;;14.41;65.46;98516.00;372136;108;1961961;-73
2021/05/14 02:22:57;;;;;;;11.77;8.11;;;;;;;14.50;65.51;98511.70;391347;104;2072948;-72
2021/05/14 02:24:03;;;;;;;10.80;6.54;;;;;;;14.37;65.53;98518.42;375814;106;1962011;-73
2021/05/14 02:25:09;;;;;;;12.07;7.68;;;;;;;14.33;65.57;98519.19;373349;106;1962990;-71
2021/05/14 02:26:22;;;;;;;11.87;6.21;;;;;;;14.42;65.63;98515.75;375566;107;2902853;-73
2021/05/14 02:27:27;;;;;;;12.74;7.04;;;;;;;14.30;65.64;98512.38;349338;108;1961126;-73
2021/05/14 02:28:33;;;;;;;11.43;5.99;;;;;;;14.29;65.57;98514.28;362642;111;1961898;-73
2021/05/14 02:29:39;;;;;;;12.19;6.66;;;;;;;14.32;65.56;98514.84;361623;109;1961887;-73
2021/05/14 02:30:51;;;;;;;11.62;6.68;;;;;;;14.41;65.62;98505.13;360561;104;2545020;-73
2021/05/14 02:31:57;;;;;;;12.27;6.09;;;;;;;14.28;65.64;98506.38;351960;105;1963020;-73
2021/05/14 02:33:05;;;;;;;11.58;6.22;;;;;;;14.26;65.69;98509.37;379482;105;1961999;-73
2021/05/14 02:34:11;;;;;;;10.44;6.80;;;;;;;14.28;65.75;98503.66;380161;105;1963000;-72
2021/05/14 02:35:17;;;;;;;12.39;6.40;;;;;;;14.25;65.60;98504.99;344390;107;2480981;-72
2021/05/14 02:36:29;;;;;;;11.75;7.77;;;;;;;14.35;65.75;98509.70;391882;104;2072663;-73
2021/05/14 02:37:34;;;;;;;12.18;7.59;;;;;;;14.22;65.71;98505.52;375769;105;1960929;-75
2021/05/14 02:38:40;;;;;;;10.41;6.76;;;;;;;14.20;65.90;98498.70;374853;107;1961981;-73
2021/05/14 02:39:47;;;;;;;10.98;7.43;;;;;;;14.20;65.84;98502.23;330014;107;2688094;-73
2021/05/14 02:40:52;;;;;;;11.99;7.62;;;;;;;14.15;65.64;98490.50;356760;108;1962009;-74
2021/05/14 02:42:03;;;;;;;12.50;8.20;;;;;;;14.22;65.75;98499.27;366330;110;1961990;-72
2021/05/14 02:43:17;;;;;;;11.36;7.76;;;;;;;14.30;65.70;98491.45;379883;106;1985914;-72
2021/05/14 02:44:22;;;;;;;11.56;7.72;;;;;;;14.19;65.67;98495.17;365644;109;1962008;-73
2021/05/14 02:45:28;;;;;;;12.16;7.55;;;;;;;14.20;65.80;98495.98;361003;110;1962044;-74
2021/05/14 02:46:42;;;;;;;11.08;7.14;;;;;;;14.34;65.99;98505.33;400334;104;1985928;-74
2021/05/14 02:47:48;;;;;;;10.59;7.49;;;;;;;14.24;65.57;98502.55;373816;105;1962082;-73
2021/05/14 02:48:54;;;;;;;15.84;7.59;;;;;;;14.29;65.37;98494.45;376848;105;1962367;-74
2021/05/14 02:50:08;;;;;;;13.47;7.84;;;;;;;14.38;65.36;98492.06;371591;101;2405046;-73
2021/05/14 02:51:14;;;;;;;10.55;7.30;;;;;;;14.28;65.29;98500.94;380763;104;1968999;-74
2021/05/14 02:52:19;;;;;;;12.57;7.39;;;;;;;14.28;65.18;98499.04;383741;105;1960942;-72
2021/05/14 02:53:32;;;;;;;12.55;7.67;;;;;;;14.44;64.93;98497.27;342933;106;2237052;-73
2021/05/14 02:54:37;;;;;;;12.55;7.46;;;;;;;14.37;64.80;98501.28;368393;107;1960843;-73
2021/05/14 02:55:42;;;;;;;12.81;7.26;;;;;;;14.38;64.79;98498.31;364031;109;1960923;-74
2021/05/14 02:56:55;;;;;;;12.62;7.39;;;;;;;14.51;64.85;98499.78;394443;104;1987014;-73
2021/05/14 02:58:01;;;;;;;12.14;7.31;;;;;;;14.41;64.66;98494.27;342705;106;2522923;-73
2021/05/14 02:59:06;;;;;;;11.04;7.13;;;;;;;14.43;64.60;98490.20;354379;107;1960970;-73
2021/05/14 03:00:14;;;;;;;10.99;6.48;;;;;;;14.43;64.52;98500.27;369973;107;1962006;-72
2021/05/14 03:01:28;;;;;;;14.06;7.39;;;;;;;14.55;64.47;98490.04;393809;103;1985942;-74
2021/05/14 03:02:33;;;;;;;14.21;9.07;;;;;;;14.46;64.41;98489.68;376942;107;1961969;-73
2021/05/14 03:03:38;;;;;;;11.63;7.14;;;;;;;14.43;64.55;98495.64;374941;107;1961860;-72
2021/05/14 03:04:44;;;;;;;14.19;7.38;;;;;;;14.40;64.54;98498.88;374292;107;1961943;-72
2021/05/14 03:05:56;;;;;;;11.94;6.89;;;;;;;14.55;64.56;98486.51;326506;108;2234966;-73
2021/05/14 03:07:02;;;;;;;12.86;7.05;;;;;;;14.41;64.44;98491.55;338225;112;1962005;-74
2021/05/14 03:08:24;;;;;;;12.77;8.05;;;;;;;14.50;64.57;98484.53;389800;104;2072023;-73
2021/05/14 03:09:30;;;;;;;12.68;7.81;;;;;;;14.41;64.47;98494.27;369872;106;1961162;-72
2021/05/14 03:10:53;;;;;;;14.22;7.81;;;;;;;14.39;64.47;98497.23;367689;109;1964772;-71
2021/05/14 03:12:06;;;;;;;15.36;7.76;;;;;;;14.50;64.43;98489.97;355783;105;2484875;-73
2021/05/14 03:13:12;;;;;;;16.01;8.07;;;;;;;14.38;64.43;98497.50;374009;108;1962946;-73
2021/05/14 03:14:17;;;;;;;13.83;7.72;;;;;;;14.39;64.40;98493.69;367279;109;1962979;-73
2021/05/14 03:15:22;;;;;;;14.64;7.60;;;;;;;14.40;64.28;98489.92;362607;109;1962027;-74
2021/05/14 03:16:28;;;;;;;13.31;7.38;;;;;;;14.38;64.29;98492.87;363974;109;1962959;-73
2021/05/14 03:17:34;;;;;;;13.32;8.48;;;;;;;14.41;64.23;98492.36;365194;109;1961957;-72
2021/05/14 03:18:40;;;;;;;12.34;7.62;;;;;;;14.42;64.25;98487.73;327181;109;2569053;-73
2021/05/14 03:19:52;;;;;;;14.13;9.48;;;;;;;14.56;64.06;98488.98;391089;104;2071892;-72
2021/05/14 03:20:59;;;;;;;13.36;8.94;;;;;;;14.46;64.03;98480.72;371790;106;1961907;-72
2021/05/14 03:22:11;;;;;;;15.36;8.97;;;;;;;14.46;64.03;98458.98;373197;101;1962975;-71
2021/05/14 03:23:16;;;;;;;14.69;8.23;;;;;;;14.54;63.95;98495.75;360459;106;1969035;-71
2021/05/14 03:24:39;;;;;;;14.21;8.27;;;;;;;14.55;63.74;98490.04;374337;106;1962006;-71
2021/05/14 03:25:45;;;;;;;16.11;9.27;;;;;;;14.60;63.59;98487.36;328580;108;2728983;-71
2021/05/14 03:26:57;;;;;;;17.09;9.52;;;;;;;14.73;63.49;98489.63;392527;104;2072023;-74
2021/05/14 03:28:03;;;;;;;15.73;8.64;;;;;;;14.64;63.38;98493.92;375011;107;1962086;-74
2021/05/14 03:29:08;;;;;;;15.58;9.20;;;;;;;14.69;63.10;98498.59;373577;107;1961961;-73
2021/05/14 03:30:14;;;;;;;18.04;9.51;;;;;;;14.70;62.98;98494.78;370716;107;1962954;-74
2021/05/14 03:31:20;;;;;;;16.35;8.71;;;;;;;14.71;62.99;98497.25;334729;107;2573930;-73
2021/05/14 03:32:35;;;;;;;16.72;9.89;;;;;;;14.86;62.79;98496.52;342045;104;2137021;-74
2021/05/14 03:33:41;;;;;;;15.77;8.68;;;;;;;14.76;62.78;98499.16;354229;107;1960940;-73
2021/05/14 03:34:53;;;;;;;14.25;9.30;;;;;;;14.94;62.51;98500.64;399004;101;1986886;-73
2021/05/14 03:35:59;;;;;;;16.71;9.43;;;;;;;14.88;62.39;98493.54;375444;107;1961896;-72
2021/05/14 03:37:22;;;;;;;16.19;9.71;;;;;;;14.95;62.26;98497.67;374699;104;1961941;-72
2021/05/14 03:38:35;;;;;;;15.42;8.93;;;;;;;15.06;61.86;98503.98;347980;106;2590049;-74
2021/05/14 03:39:45;;;;;;;15.80;10.06;;;;;;;14.97;61.96;98502.02;361548;109;1966004;-73
2021/05/14 03:40:57;;;;;;;15.45;10.01;;;;;;;15.11;61.84;98503.17;381475;109;1986001;-74
2021/05/14 03:42:17;;;;;;;13.26;9.78;;;;;;;15.04;61.52;98506.14;360614;111;1962983;-73
2021/05/14 03:43:29;;;;;;;15.05;9.29;;;;;;;15.21;61.39;98499.69;376333;108;1986018;-74
2021/05/14 03:44:35;;;;;;;18.30;11.90;;;;;;;15.14;61.19;98502.67;313892;113;2777970;-73
2021/05/14 03:45:59;;;;;;;17.22;12.47;;;;;;;15.18;61.04;98495.59;353723;113;1961913;-74
2021/05/14 03:47:17;;;;;;;15.49;11.26;;;;;;;15.33;60.93;98503.02;398483;104;1986015;-74
2021/05/14 03:48:23;;;;;;;16.54;10.77;;;;;;;15.27;60.70;98502.19;374970;107;1964014;-74
2021/05/14 03:49:29;;;;;;;22.43;10.44;;;;;;;15.33;60.48;98503.02;372991;107;1961958;-74
2021/05/14 03:51:00;;;;;;;19.69;10.58;;;;;;;15.51;59.82;98494.39;404758;99;1987968;-74
2021/05/14 03:52:12;;;;;;;17.20;11.14;;;;;;;15.42;60.06;98501.41;394900;100;1962029;-74
2021/05/14 03:53:18;;;;;;;18.53;11.93;;;;;;;15.44;59.98;98501.16;389927;102;1963112;-73
2021/05/14 03:54:30;;;;;;;19.45;11.98;;;;;;;15.60;59.78;98505.57;380780;104;1964895;-73
2021/05/14 03:55:35;;;;;;;19.99;10.67;;;;;;;15.49;59.96;98498.46;369313;107;1961969;-74
2021/05/14 03:56:48;;;;;;;14.87;10.60;;;;;;;15.69;59.41;98505.89;395025;104;1986961;-71
2021/05/14 03:57:54;;;;;;;17.16;10.70;;;;;;;15.60;59.50;98502.84;374461;105;1961991;-70
2021/05/14 03:59:17;;;;;;;20.60;10.74;;;;;;;15.60;59.32;98502.84;373589;106;1963014;-72
2021/05/14 04:00:25;;;;;;;18.03;11.23;;;;;;;15.60;59.22;98502.84;327589;106;2815923;-72
2021/05/14 04:01:31;;;;;;;16.11;10.32;;;;;;;15.63;59.19;98505.03;367851;108;1962973;-72
2021/05/14 04:02:44;;;;;;;16.34;11.07;;;;;;;15.78;58.99;98504.30;382616;106;2072002;-72
2021/05/14 04:03:50;;;;;;;19.03;11.99;;;;;;;15.69;58.98;98497.73;320361;107;2801992;-72
2021/05/14 04:04:56;;;;;;;14.47;10.66;;;;;;;15.74;58.75;98503.19;363520;109;1961896;-72
2021/05/14 04:06:01;;;;;;;19.23;11.68;;;;;;;15.73;58.68;98507.01;365289;109;1961920;-73
2021/05/14 04:07:14;;;;;;;16.97;9.33;;;;;;;15.83;58.64;98502.41;393931;103;1986896;-75
2021/05/14 04:08:20;;;;;;;20.50;11.32;;;;;;;15.75;58.40;98508.38;343607;107;2476985;-74
2021/05/14 04:12:07;;;;;;;14.04;8.90;;;;;;;15.75;58.38;98502.94;374994;105;1961973;-73
2021/05/14 04:14:38;;;;;;;16.19;10.54;;;;;;;15.81;58.31;98503.77;364432;109;1963220;-74
2021/05/14 04:16:01;;;;;;;18.62;9.30;;;;;;;15.83;58.24;98501.59;363229;109;1963037;-74
2021/05/14 04:17:07;;;;;;;16.48;9.44;;;;;;;15.85;57.84;98499.43;365314;109;1963943;-74
2021/05/14 04:18:13;;;;;;;14.84;9.12;;;;;;;15.88;57.97;98498.05;363348;109;1961920;-74
2021/05/14 04:19:20;;;;;;;17.50;8.57;;;;;;;15.91;57.88;98494.80;363523;109;1962954;-74
2021/05/14 04:20:25;;;;;;;17.69;9.73;;;;;;;15.91;57.49;98501.06;344387;110;1962004;-74
2021/05/14 04:21:37;;;;;;;14.61;8.31;;;;;;;16.00;57.59;98496.70;395549;104;1986903;-74
2021/05/14 04:22:43;;;;;;;14.47;8.08;;;;;;;15.89;57.77;98497.78;374615;105;1961973;-74
2021/05/14 04:23:49;;;;;;;17.02;9.47;;;;;;;15.96;57.62;98498.36;374815;106;1962047;-74
2021/05/14 04:25:12;;;;;;;15.93;8.56;;;;;;;16.06;57.60;98497.53;390877;104;1961988;-74
2021/05/14 04:26:17;;;;;;;14.89;8.07;;;;;;;15.99;57.61;98497.00;368660;107;1964099;-72
2021/05/14 04:27:30;;;;;;;21.79;9.19;;;;;;;16.13;57.47;98483.66;341713;101;2809918;-71
2021/05/14 04:28:35;;;;;;;13.47;8.14;;;;;;;16.10;57.46;98490.47;342259;108;1962983;-73
2021/05/14 04:29:59;;;;;;;19.77;9.03;;;;;;;16.18;57.16;98492.66;375342;106;1961956;-72
2021/05/14 04:31:11;;;;;;;16.16;8.44;;;;;;;16.34;56.50;98488.03;392271;104;1986028;-71
2021/05/14 04:32:16;;;;;;;19.30;8.14;;;;;;;16.29;56.63;98496.20;376169;107;1961949;-72
2021/05/14 04:33:28;;;;;;;14.67;8.99;;;;;;;16.41;56.49;98485.86;395060;104;1989964;-74
2021/05/14 04:34:34;;;;;;;15.32;8.26;;;;;;;16.39;56.45;98489.95;373115;106;1963960;-73
2021/05/14 04:35:46;;;;;;;15.18;8.78;;;;;;;16.55;56.12;98490.76;388610;104;2072779;-73
2021/05/14 04:36:52;;;;;;;14.33;8.36;;;;;;;16.47;55.89;98481.22;373518;107;1963044;-74
2021/05/14 04:38:15;;;;;;;16.02;8.36;;;;;;;16.48;55.64;98491.02;347586;107;2415926;-74
2021/05/14 04:39:21;;;;;;;17.12;7.98;;;;;;;16.51;55.73;98500.56;353897;107;1961993;-73
2021/05/14 04:40:33;;;;;;;17.83;9.59;;;;;;;16.62;55.74;98491.30;391429;104;2071956;-74
2021/05/14 04:41:40;;;;;;;16.39;9.47;;;;;;;16.56;55.73;98490.47;377468;106;1963042;-74
2021/05/14 04:42:52;;;;;;;14.13;8.76;;;;;;;16.74;55.77;98494.55;394143;103;1960778;-72
2021/05/14 04:43:57;;;;;;;15.48;8.82;;;;;;;16.72;55.26;98493.99;374449;106;1960829;-73
2021/05/14 04:45:10;;;;;;;14.86;8.92;;;;;;;16.96;55.26;98490.72;395820;103;1985865;-74
2021/05/14 04:46:16;;;;;;;21.67;8.84;;;;;;;16.98;54.87;98483.89;336571;106;1962046;-73
2021/05/14 04:47:48;;;;;;;12.99;9.03;;;;;;;17.03;54.64;98489.33;376729;106;1962023;-73
2021/05/14 04:48:55;;;;;;;14.38;8.54;;;;;;;17.12;54.25;98487.69;366748;108;1961920;-72
2021/05/14 04:50:08;;;;;;;17.27;8.51;;;;;;;17.32;54.35;98485.97;388999;104;1985907;-74
2021/05/14 04:51:14;;;;;;;15.52;8.18;;;;;;;17.32;54.27;98491.43;371415;108;1960975;-75
2021/05/14 04:52:22;;;;;;;14.28;8.90;;;;;;;17.44;53.90;98496.55;370828;108;1961875;-75
2021/05/14 04:53:36;;;;;;;15.42;7.71;;;;;;;17.69;53.70;98484.71;397624;104;1984858;-74
2021/05/14 04:54:42;;;;;;;24.39;8.73;;;;;;;17.64;53.53;98482.00;367929;105;1960878;-71
2021/05/14 04:55:54;;;;;;;17.69;9.36;;;;;;;17.77;52.93;98482.20;395544;104;1985959;-75
2021/05/14 04:57:00;;;;;;;16.79;9.33;;;;;;;17.63;53.08;98488.58;375272;107;1962051;-74
2021/05/14 04:58:24;;;;;;;13.74;7.92;;;;;;;17.64;53.09;98477.36;372652;107;1961970;-74
2021/05/14 04:59:31;;;;;;;16.25;8.47;;;;;;;17.63;52.86;98480.39;374020;105;1961971;-73
2021/05/14 05:00:54;;;;;;;17.72;8.17;;;;;;;17.69;52.70;98477.33;385652;106;1972985;-72
2021/05/14 05:02:11;;;;;;;14.11;7.80;;;;;;;17.58;52.79;98481.22;368974;108;1961996;-73
2021/05/14 05:03:17;;;;;;;15.91;8.16;;;;;;;17.61;52.80;98483.38;338041;108;2452019;-72
2021/05/14 05:04:22;;;;;;;14.17;7.96;;;;;;;17.68;52.63;98478.44;357000;109;1961990;-73
2021/05/14 05:05:36;;;;;;;15.19;8.54;;;;;;;17.86;52.49;98477.02;389107;105;1985916;-72
2021/05/14 05:06:42;;;;;;;16.76;9.38;;;;;;;17.76;52.25;98475.11;315015;107;2117830;-74
2021/05/14 05:07:48;;;;;;;13.66;7.77;;;;;;;17.79;52.12;98479.23;352991;107;1961030;-74
2021/05/14 05:08:53;;;;;;;12.57;7.93;;;;;;;17.80;52.06;98473.47;362264;101;1960892;-72
2021/05/14 05:09:58;;;;;;;14.48;8.47;;;;;;;17.83;52.03;98476.73;348136;113;1962065;-73
2021/05/14 05:11:11;;;;;;;16.65;8.54;;;;;;;17.91;51.71;98479.68;394360;104;1986973;-73
2021/05/14 05:12:18;;;;;;;18.18;10.79;;;;;;;17.80;52.05;98475.39;357171;106;1960925;-73
2021/05/14 05:13:30;;;;;;;17.90;10.94;;;;;;;17.91;51.84;98467.94;386491;106;1985948;-73
2021/05/14 05:14:39;;;;;;;21.96;10.34;;;;;;;17.75;52.01;98470.73;359437;110;1962070;-72
2021/05/14 05:15:53;;;;;;;14.55;8.28;;;;;;;17.89;51.95;98470.13;364346;104;2446056;-73
2021/05/14 05:17:05;;;;;;;13.29;8.09;;;;;;;17.91;52.01;98465.21;402068;101;2079929;-74
2021/05/14 05:18:13;;;;;;;14.22;7.56;;;;;;;17.79;51.82;98469.11;365953;103;1962997;-73
2021/05/14 05:19:19;;;;;;;12.07;7.09;;;;;;;17.83;52.11;98466.63;378819;103;1963901;-73
2021/05/14 05:20:25;;;;;;;13.40;8.36;;;;;;;17.89;52.09;98465.52;383388;103;1961897;-73